Time;durP1;ratioP1;P1;durP2;ratioP2;P2;SDS_P1;SDS_P2;PMS_P1;PMS_P2;Temp;Humidity;BMP_temperature;BMP_pressure;BME280_temperature;BME280_humidity;BME280_pressure;Samples;Min_cycle;Max_cycle;Signal;HPM_P1;HPM_P2
2022/09/27 04:02:31;;;;;;;4.97;2.50;;;10.20;99.90;;;;;;5006785;23;20534;-63
2022/09/27 04:04:58;;;;;;;6.63;3.10;;;10.20;99.90;;;;;;4975586;28;20446;-63
2022/09/27 04:07:25;;;;;;;5.47;3.43;;;10.30;99.90;;;;;;4976089;28;20457;-63
2022/09/27 04:09:52;;;;;;;7.13;3.10;;;10.30;99.90;;;;;;4975298;28;20451;-64
2022/09/27 04:12:18;;;;;;;7.70;3.00;;;10.30;99.90;;;;;;4975557;28;21004;-63
2022/09/27 04:14:45;;;;;;;5.13;2.73;;;10.40;99.90;;;;;;4975177;28;20482;-64
2022/09/27 04:17:12;;;;;;;4.70;2.50;;;10.40;99.90;;;;;;4975493;28;20454;-63
2022/09/27 04:19:40;;;;;;;6.93;3.07;;;10.40;99.90;;;;;;4975329;28;20459;-63
2022/09/27 04:22:07;;;;;;;6.83;3.43;;;10.50;99.90;;;;;;4975124;28;20478;-63
2022/09/27 04:24:33;;;;;;;7.27;3.70;;;10.50;99.90;;;;;;4975221;28;20476;-63
2022/09/27 04:27:00;;;;;;;4.63;2.47;;;10.50;99.90;;;;;;4975124;28;20462;-64
2022/09/27 04:29:27;;;;;;;6.53;3.20;;;10.50;99.90;;;;;;4975158;28;20461;-63
2022/09/27 04:31:54;;;;;;;5.50;3.07;;;10.50;99.90;;;;;;4974271;28;20981;-63
2022/09/27 04:36:25;;;;;;;6.77;2.53;;;10.50;99.90;;;;;;4975084;28;20455;-63
2022/09/27 04:37:10;;;;;;;4.93;2.90;;;10.50;99.90;;;;;;4975658;28;20455;-62
2022/09/27 04:39:38;;;;;;;7.03;3.17;;;10.50;99.90;;;;;;4976058;28;20474;-63
2022/09/27 04:42:06;;;;;;;4.60;2.87;;;10.50;99.90;;;;;;4975233;28;20486;-62
2022/09/27 04:44:32;;;;;;;7.73;3.00;;;10.50;99.90;;;;;;4975190;28;20455;-63
2022/09/27 04:46:59;;;;;;;9.80;2.90;;;10.50;99.90;;;;;;4974981;28;20461;-63
2022/09/27 04:49:26;;;;;;;8.20;2.83;;;10.50;99.90;;;;;;4974845;28;20458;-63
2022/09/27 04:51:53;;;;;;;6.93;3.00;;;10.50;99.90;;;;;;4974871;28;20530;-63
2022/09/27 04:54:22;;;;;;;3.90;2.30;;;10.50;99.90;;;;;;4974905;28;20461;-63
2022/09/27 04:56:49;;;;;;;7.77;3.20;;;10.50;99.90;;;;;;4974891;28;20535;-63
2022/09/27 04:59:16;;;;;;;6.30;3.00;;;10.50;99.90;;;;;;4975100;28;20458;-63
2022/09/27 05:01:43;;;;;;;7.37;3.10;;;10.50;99.90;;;;;;4974454;28;20493;-63
2022/09/27 05:04:10;;;;;;;6.33;2.70;;;10.50;99.90;;;;;;4975561;28;20455;-63
2022/09/27 05:06:37;;;;;;;4.50;2.70;;;10.50;99.90;;;;;;4974570;28;20450;-63
2022/09/27 05:09:03;;;;;;;3.93;2.40;;;10.50;99.90;;;;;;4974713;28;20541;-63
2022/09/27 05:11:31;;;;;;;5.80;2.00;;;10.40;99.90;;;;;;4974593;28;20478;-62
2022/09/27 05:13:58;;;;;;;5.47;1.90;;;10.40;99.90;;;;;;4974666;28;20454;-63
2022/09/27 05:16:25;;;;;;;3.23;2.00;;;10.40;99.90;;;;;;4974194;28;20500;-63
2022/09/27 05:18:52;;;;;;;4.73;2.53;;;10.40;99.90;;;;;;4974398;28;20969;-64
2022/09/27 05:21:18;;;;;;;4.37;1.87;;;10.40;99.90;;;;;;4974812;28;20478;-62
2022/09/27 05:23:45;;;;;;;2.20;1.87;;;10.40;99.90;;;;;;4974498;28;20454;-63
2022/09/27 05:26:12;;;;;;;3.77;1.50;;;10.50;99.90;;;;;;4974649;28;20457;-62
2022/09/27 05:28:42;;;;;;;2.30;1.70;;;10.50;99.90;;;;;;4974575;28;20454;-63
2022/09/27 05:31:12;;;;;;;4.87;2.00;;;10.50;99.90;;;;;;4974391;28;20478;-63
2022/09/27 05:33:38;;;;;;;2.07;1.70;;;10.50;99.90;;;;;;4974532;28;20787;-63
2022/09/27 05:36:05;;;;;;;1.90;1.67;;;10.50;99.90;;;;;;4974245;28;20475;-62
2022/09/27 05:38:34;;;;;;;4.77;1.87;;;10.50;99.90;;;;;;4974506;28;20454;-63
2022/09/27 05:41:00;;;;;;;1.40;1.40;;;10.40;99.90;;;;;;4974471;28;20483;-64
2022/09/27 05:43:27;;;;;;;2.80;1.50;;;10.40;99.90;;;;;;4974397;28;20455;-63
2022/09/27 05:45:55;;;;;;;1.73;1.60;;;10.40;99.90;;;;;;4977606;28;20521;-63
2022/09/27 05:48:23;;;;;;;2.53;1.87;;;10.40;99.90;;;;;;4977612;28;20946;-63
2022/09/27 05:50:49;;;;;;;1.83;1.50;;;10.40;99.90;;;;;;4981662;28;20475;-62
2022/09/27 05:53:16;;;;;;;3.10;1.57;;;10.50;99.90;;;;;;4980838;28;20462;-63
2022/09/27 05:55:43;;;;;;;1.50;1.40;;;10.50;99.90;;;;;;4977701;28;20478;-63
2022/09/27 05:58:12;;;;;;;2.90;1.80;;;10.50;99.90;;;;;;4977683;28;20455;-63
2022/09/27 06:00:39;;;;;;;3.70;2.03;;;10.50;99.90;;;;;;4977510;28;20986;-63
2022/09/27 06:03:07;;;;;;;1.63;1.50;;;10.50;99.90;;;;;;4977616;28;20511;-64
2022/09/27 06:05:36;;;;;;;2.03;1.87;;;10.50;99.90;;;;;;4977757;28;20454;-62
2022/09/27 06:08:05;;;;;;;2.43;1.77;;;10.60;99.90;;;;;;4977248;28;20466;-63
2022/09/27 06:10:32;;;;;;;4.33;1.67;;;10.60;99.90;;;;;;4977547;28;20475;-63
2022/09/27 06:13:01;;;;;;;2.50;1.70;;;10.60;99.90;;;;;;4977095;28;20459;-63
2022/09/27 06:15:28;;;;;;;3.90;1.77;;;10.70;99.90;;;;;;4977434;28;20489;-62
2022/09/27 06:17:55;;;;;;;3.80;2.33;;;10.70;99.90;;;;;;4977478;28;20549;-63
2022/09/27 06:20:23;;;;;;;2.70;2.07;;;10.80;99.90;;;;;;4977571;28;20458;-64
2022/09/27 06:22:52;;;;;;;2.83;1.60;;;10.80;99.90;;;;;;4977298;28;20458;-63
2022/09/27 06:25:20;;;;;;;2.90;1.60;;;10.90;99.90;;;;;;4977251;28;20478;-63
2022/09/27 06:27:47;;;;;;;2.27;1.70;;;10.80;99.90;;;;;;4977449;28;20478;-62
2022/09/27 06:30:13;;;;;;;1.83;1.70;;;10.90;99.90;;;;;;4977205;28;20458;-62
2022/09/27 06:32:40;;;;;;;2.17;1.73;;;10.90;99.90;;;;;;4977085;28;20461;-64
2022/09/27 06:35:07;;;;;;;4.07;1.90;;;10.90;99.90;;;;;;4976845;28;20471;-63
2022/09/27 06:37:35;;;;;;;1.87;1.50;;;10.90;99.90;;;;;;4977451;28;20458;-64
2022/09/27 06:40:02;;;;;;;1.50;1.40;;;10.90;99.90;;;;;;4977196;28;20455;-63
2022/09/27 06:42:29;;;;;;;1.57;1.50;;;10.90;99.90;;;;;;4976906;28;20525;-63
2022/09/27 06:44:56;;;;;;;2.30;1.60;;;10.90;99.90;;;;;;4976922;28;20597;-62
2022/09/27 06:47:24;;;;;;;1.43;1.33;;;11.00;99.90;;;;;;4976720;28;20459;-62
2022/09/27 06:49:50;;;;;;;1.30;1.30;;;11.10;99.90;;;;;;4980628;28;20825;-63
2022/09/27 06:52:17;;;;;;;1.30;1.20;;;11.10;99.90;;;;;;4980980;28;20474;-63
2022/09/27 06:54:45;;;;;;;1.10;1.00;;;11.20;99.90;;;;;;4976869;28;20454;-63
2022/09/27 07:00:22;;;;;;;2.50;0.90;;;11.20;99.90;;;;;;4976639;28;20486;-63
2022/09/27 07:02:46;;;;;;;1.70;1.20;;;11.10;99.90;;;;;;4978689;28;20433;-63
2022/09/27 07:05:13;;;;;;;2.73;1.10;;;11.10;99.90;;;;;;4976706;28;20942;-62
2022/09/27 07:07:39;;;;;;;0.90;0.90;;;11.00;99.90;;;;;;4976609;28;20451;-64
2022/09/27 07:10:09;;;;;;;1.37;1.00;;;11.00;99.90;;;;;;4976721;28;20469;-63
2022/09/27 07:12:36;;;;;;;0.80;0.80;;;11.00;99.90;;;;;;4976056;28;20451;-62
2022/09/27 07:15:04;;;;;;;1.77;0.90;;;10.90;99.90;;;;;;4976149;28;20862;-63
2022/09/27 07:17:31;;;;;;;0.87;0.70;;;10.80;99.90;;;;;;4976297;28;20553;-63
2022/09/27 07:19:57;;;;;;;0.90;0.83;;;10.80;99.90;;;;;;4976456;28;20454;-63
2022/09/27 07:22:24;;;;;;;0.70;0.70;;;10.80;99.90;;;;;;4976422;28;20474;-63
2022/09/27 07:24:51;;;;;;;1.93;0.70;;;10.70;99.90;;;;;;4976193;28;20461;-63
2022/09/27 07:27:19;;;;;;;0.50;0.50;;;10.80;99.90;;;;;;4976044;28;20454;-63
2022/09/27 07:29:46;;;;;;;0.97;0.60;;;10.90;99.90;;;;;;4976116;28;20454;-63
2022/09/27 07:32:13;;;;;;;1.43;0.70;;;10.90;99.90;;;;;;4976079;28;20995;-63
2022/09/27 07:34:40;;;;;;;1.77;0.70;;;10.80;99.90;;;;;;4975932;28;20825;-62
2022/09/27 07:37:06;;;;;;;0.60;0.60;;;10.90;99.90;;;;;;4976768;28;20486;-62
2022/09/27 07:39:33;;;;;;;0.60;0.60;;;10.90;99.90;;;;;;4980542;28;20454;-63
2022/09/27 07:42:01;;;;;;;3.30;1.20;;;10.90;99.90;;;;;;4978711;28;20475;-63
2022/09/27 07:44:29;;;;;;;0.70;0.70;;;11.00;99.90;;;;;;4977756;28;20509;-63
2022/09/27 07:46:56;;;;;;;1.67;1.10;;;10.80;99.90;;;;;;4975772;28;20963;-63
2022/09/27 07:49:22;;;;;;;0.80;0.80;;;10.80;99.90;;;;;;4975917;28;20469;-62
2022/09/27 07:51:50;;;;;;;3.50;1.27;;;10.90;99.90;;;;;;4975798;28;20485;-63
2022/09/27 07:54:17;;;;;;;3.33;1.10;;;10.90;99.90;;;;;;4975837;28;20455;-63
2022/09/27 07:56:45;;;;;;;1.47;1.37;;;11.10;99.90;;;;;;4975670;28;20479;-64
2022/09/27 07:59:11;;;;;;;2.63;1.23;;;11.40;99.90;;;;;;4975701;28;20462;-64
2022/09/27 08:01:39;;;;;;;0.93;0.93;;;11.80;99.90;;;;;;4975243;28;21024;-63
2022/09/27 08:04:06;;;;;;;3.07;1.00;;;12.30;99.90;;;;;;4976298;28;20459;-63
2022/09/27 08:06:34;;;;;;;1.00;1.00;;;13.10;99.90;;;;;;4975010;28;20461;-64
2022/09/27 08:09:02;;;;;;;1.13;1.00;;;14.10;99.90;;;;;;4975442;28;20494;-64
2022/09/27 08:11:28;;;;;;;1.00;1.00;;;14.70;99.90;;;;;;4975308;28;20482;-64
2022/09/27 08:13:55;;;;;;;2.00;0.80;;;15.20;99.90;;;;;;4975184;28;20964;-62
2022/09/27 08:16:22;;;;;;;2.53;1.00;;;15.60;99.90;;;;;;4975520;28;20483;-63
2022/09/27 08:18:51;;;;;;;1.07;0.97;;;15.80;99.90;;;;;;4975548;28;20458;-63
2022/09/27 08:21:17;;;;;;;2.27;1.40;;;15.50;99.90;;;;;;4975377;28;20482;-63
2022/09/27 08:23:44;;;;;;;1.30;1.20;;;15.30;99.90;;;;;;4975655;28;20455;-62
2022/09/27 08:26:11;;;;;;;1.53;1.43;;;15.00;99.90;;;;;;4975095;28;20957;-62
2022/09/27 08:28:38;;;;;;;1.43;1.20;;;14.70;99.90;;;;;;4975036;28;20455;-63
2022/09/27 08:31:05;;;;;;;1.40;1.30;;;14.60;99.90;;;;;;4975080;28;20485;-63
2022/09/27 08:33:31;;;;;;;3.60;2.10;;;14.50;99.90;;;;;;4975017;28;20473;-63
2022/09/27 08:36:00;;;;;;;2.53;1.20;;;14.50;99.90;;;;;;4974772;28;21012;-63
2022/09/27 08:38:27;;;;;;;2.27;1.43;;;14.20;99.90;;;;;;4975136;28;20466;-63
2022/09/27 08:40:57;;;;;;;1.30;1.20;;;14.00;99.90;;;;;;4975012;28;20510;-63
2022/09/27 08:43:35;;;;;;;0.83;0.83;;;14.10;99.90;;;;;;4974839;28;20454;-63
2022/09/27 08:46:21;;;;;;;0.80;0.80;;;14.50;99.90;;;;;;4975368;28;20522;-63
2022/09/27 08:48:52;;;;;;;1.73;1.63;;;14.80;99.90;;;;;;4974766;28;20798;-63
2022/09/27 08:51:25;;;;;;;0.87;0.87;;;14.90;99.90;;;;;;4975089;28;20482;-63
2022/09/27 08:53:56;;;;;;;1.07;1.07;;;14.90;99.90;;;;;;4974725;28;20443;-63
2022/09/27 08:56:23;;;;;;;1.40;1.30;;;14.70;99.90;;;;;;4974757;28;20469;-62
2022/09/27 08:58:55;;;;;;;1.63;1.20;;;14.20;99.90;;;;;;4975186;28;20797;-62
2022/09/27 09:01:22;;;;;;;1.67;1.20;;;13.90;99.90;;;;;;4974598;28;20486;-62
2022/09/27 09:03:53;;;;;;;1.20;1.10;;;13.80;99.90;;;;;;4974660;28;20455;-63
2022/09/27 09:06:25;;;;;;;2.87;1.50;;;13.70;99.90;;;;;;4974700;28;20796;-63
2022/09/27 09:09:02;;;;;;;3.47;1.47;;;13.50;99.90;;;;;;4974798;28;20449;-63
2022/09/27 09:14:42;;;;;;;1.60;1.20;;;13.20;99.90;;;;;;4975105;28;20593;-62
2022/09/27 09:17:18;;;;;;;2.20;1.60;;;13.20;99.90;;;;;;4973963;28;20471;-63
2022/09/27 09:20:03;;;;;;;1.57;1.33;;;13.20;99.90;;;;;;4977794;28;20449;-63
2022/09/27 09:22:45;;;;;;;4.10;1.60;;;13.30;99.90;;;;;;4978240;28;20981;-62
2022/09/27 09:25:23;;;;;;;1.70;1.50;;;13.50;99.90;;;;;;4978368;28;20448;-62
2022/09/27 09:28:02;;;;;;;3.53;1.87;;;13.60;99.90;;;;;;4979379;28;20439;-63
2022/09/27 09:30:36;;;;;;;1.50;1.40;;;13.80;99.90;;;;;;4984601;28;20446;-63
2022/09/27 09:33:23;;;;;;;1.80;1.30;;;14.10;99.90;;;;;;4984753;28;20443;-63
2022/09/27 09:35:57;;;;;;;1.70;1.40;;;14.90;99.90;;;;;;4981080;28;20439;-63
2022/09/27 09:38:33;;;;;;;1.10;1.10;;;15.50;99.90;;;;;;4978193;28;20446;-64
2022/09/27 09:41:05;;;;;;;2.43;1.50;;;16.40;99.90;;;;;;4978059;28;20478;-63
2022/09/27 09:43:35;;;;;;;1.37;0.97;;;17.30;99.90;;;;;;4978173;28;20443;-64
2022/09/27 09:46:09;;;;;;;2.10;1.23;;;17.60;99.90;;;;;;4983344;28;20443;-63
2022/09/27 09:48:42;;;;;;;2.00;0.80;;;17.40;99.90;;;;;;4983532;28;20529;-63
2022/09/27 09:51:15;;;;;;;1.60;1.30;;;17.00;99.90;;;;;;4984077;28;20476;-62
2022/09/27 09:53:48;;;;;;;1.00;0.90;;;16.80;99.90;;;;;;4978210;28;20465;-63
2022/09/27 09:56:20;;;;;;;2.13;1.37;;;16.70;99.90;;;;;;4977510;28;20862;-63
2022/09/27 09:58:51;;;;;;;4.10;1.77;;;16.50;99.90;;;;;;4978332;28;20443;-62
2022/09/27 10:01:20;;;;;;;4.67;2.00;;;16.40;99.90;;;;;;4977385;28;20486;-63
2022/09/27 10:03:48;;;;;;;1.50;1.07;;;16.30;99.90;;;;;;4977645;28;20459;-63
2022/09/27 10:06:16;;;;;;;1.90;1.30;;;16.30;99.90;;;;;;4977512;28;20442;-63
2022/09/27 10:08:46;;;;;;;2.17;1.80;;;16.50;99.90;;;;;;4977573;28;20455;-63
2022/09/27 10:11:21;;;;;;;2.10;1.20;;;16.50;99.90;;;;;;4977341;28;20533;-63
2022/09/27 10:13:48;;;;;;;3.23;1.40;;;16.30;99.90;;;;;;4977332;28;20449;-63
2022/09/27 10:16:17;;;;;;;2.10;1.50;;;16.40;99.90;;;;;;4977070;28;20489;-62
2022/09/27 10:18:46;;;;;;;2.90;1.23;;;16.30;99.90;;;;;;4977343;28;20454;-62
2022/09/27 10:21:18;;;;;;;3.03;1.80;;;16.40;99.90;;;;;;4977116;28;20482;-62
2022/09/27 10:24:10;;;;;;;2.00;1.77;;;16.20;99.90;;;;;;4977181;28;20443;-63
2022/09/27 10:26:39;;;;;;;1.87;1.60;;;15.90;99.90;;;;;;4977048;28;20439;-63
2022/09/27 10:29:28;;;;;;;1.80;1.40;;;15.50;99.90;;;;;;4977074;28;20457;-62
2022/09/27 10:31:56;;;;;;;1.27;1.27;;;15.30;99.90;;;;;;4976679;28;20481;-63
2022/09/27 10:34:30;;;;;;;2.63;1.47;;;15.20;99.90;;;;;;4977515;28;20531;-62
2022/09/27 10:37:07;;;;;;;3.00;1.60;;;15.00;99.90;;;;;;4976527;28;21017;-63
2022/09/27 10:39:36;;;;;;;6.03;1.20;;;14.80;99.90;;;;;;4976632;28;20443;-62
2022/09/27 10:42:03;;;;;;;1.53;1.20;;;14.60;99.90;;;;;;4976425;28;20470;-63
2022/09/27 10:44:31;;;;;;;2.73;1.30;;;14.50;99.90;;;;;;4976453;28;20458;-63
2022/09/27 10:47:06;;;;;;;2.50;1.20;;;14.40;99.90;;;;;;4976989;28;20451;-63
2022/09/27 10:49:35;;;;;;;3.20;1.47;;;14.30;99.90;;;;;;4976753;28;20438;-63
2022/09/27 10:52:04;;;;;;;2.30;1.40;;;14.30;99.90;;;;;;4976890;28;20986;-62
2022/09/27 10:54:35;;;;;;;3.00;1.90;;;14.20;99.90;;;;;;4976791;28;20478;-63
2022/09/27 10:57:05;;;;;;;3.20;1.30;;;14.20;99.90;;;;;;4977179;28;20467;-63
2022/09/27 10:59:35;;;;;;;2.17;1.73;;;14.30;99.90;;;;;;4977239;28;20450;-63
2022/09/27 11:02:04;;;;;;;1.30;1.27;;;14.20;99.90;;;;;;4976455;28;20494;-62
2022/09/27 11:04:33;;;;;;;3.03;1.50;;;14.20;99.90;;;;;;4976681;28;20459;-62
2022/09/27 11:07:12;;;;;;;2.13;1.50;;;14.30;99.90;;;;;;4976552;28;20451;-62
2022/09/27 11:09:48;;;;;;;1.47;1.37;;;14.30;99.90;;;;;;4976194;28;20906;-63
2022/09/27 11:12:19;;;;;;;1.90;1.10;;;14.20;99.90;;;;;;4976162;28;20470;-63
2022/09/27 11:14:53;;;;;;;1.33;1.33;;;14.10;99.90;;;;;;4976401;28;20443;-62
2022/09/27 11:17:25;;;;;;;1.50;1.30;;;14.10;99.90;;;;;;4976474;28;20466;-62
2022/09/27 11:20:15;;;;;;;1.60;1.50;;;13.90;99.90;;;;;;4977530;28;20443;-62
2022/09/27 11:23:30;;;;;;;2.30;1.70;;;13.80;99.90;;;;;;4980877;28;20439;-64
2022/09/27 11:26:13;;;;;;;3.27;1.90;;;13.60;99.90;;;;;;4979014;28;20938;-63
2022/09/27 11:28:52;;;;;;;8.00;2.20;;;13.50;99.90;;;;;;4981803;28;20431;-63
2022/09/27 11:31:32;;;;;;;3.00;2.80;;;13.40;99.90;;;;;;4983415;28;20497;-63
2022/09/27 11:34:16;;;;;;;3.33;1.90;;;13.20;99.90;;;;;;4985957;28;20430;-64
2022/09/27 11:37:04;;;;;;;2.60;1.80;;;13.20;99.90;;;;;;4984747;28;20473;-64
2022/09/27 11:39:44;;;;;;;4.80;2.10;;;13.20;99.90;;;;;;4982169;28;20902;-63
2022/09/27 11:42:39;;;;;;;3.03;2.33;;;13.10;99.90;;;;;;4978939;28;20791;-62
2022/09/27 11:45:35;;;;;;;2.60;2.40;;;13.00;99.90;;;;;;4977511;28;20923;-63
2022/09/27 11:48:16;;;;;;;2.87;2.67;;;12.80;99.90;;;;;;4976361;28;20430;-63
2022/09/27 11:50:56;;;;;;;3.20;2.50;;;12.60;99.90;;;;;;4976062;28;20484;-64
2022/09/27 11:53:34;;;;;;;5.03;2.37;;;12.50;99.90;;;;;;4975647;28;20921;-63
2022/09/27 11:56:12;;;;;;;4.27;2.37;;;12.20;99.90;;;;;;4975765;28;20438;-63
2022/09/27 11:58:49;;;;;;;2.73;2.00;;;11.80;99.90;;;;;;4975512;28;20823;-62
2022/09/27 12:01:25;;;;;;;2.70;1.73;;;11.40;99.90;;;;;;4975166;28;20501;-63
2022/09/27 12:04:15;;;;;;;2.10;1.30;;;11.20;99.90;;;;;;4975439;28;20473;-63
2022/09/27 12:06:50;;;;;;;1.30;1.20;;;10.70;99.90;;;;;;4975538;28;20443;-63
2022/09/27 12:09:20;;;;;;;1.40;1.30;;;10.60;99.90;;;;;;4976191;28;20478;-63
2022/09/27 12:11:50;;;;;;;1.50;1.40;;;10.40;99.90;;;;;;4974977;28;21048;-63
2022/09/27 12:14:22;;;;;;;2.00;1.40;;;10.40;99.90;;;;;;4975285;28;20510;-63
2022/09/27 12:16:52;;;;;;;2.00;1.00;;;10.40;99.90;;;;;;4975178;28;20447;-63
2022/09/27 12:19:23;;;;;;;0.87;0.87;;;10.40;99.90;;;;;;4975556;28;20439;-63
2022/09/27 12:21:50;;;;;;;1.40;0.90;;;10.50;99.90;;;;;;4977831;28;20513;-63
2022/09/27 12:24:21;;;;;;;0.70;0.70;;;10.50;99.90;;;;;;4976761;28;20459;-63
2022/09/27 12:26:50;;;;;;;0.83;0.83;;;10.50;99.90;;;;;;4975313;28;20470;-63
2022/09/27 12:29:24;;;;;;;2.30;0.80;;;10.50;99.90;;;;;;4975076;28;20455;-63
2022/09/27 12:31:59;;;;;;;1.23;1.23;;;10.60;99.90;;;;;;4974675;28;20981;-63
2022/09/27 12:34:32;;;;;;;1.17;0.73;;;10.50;99.90;;;;;;4974811;28;20814;-63
2022/09/27 12:37:03;;;;;;;1.00;1.00;;;10.50;99.90;;;;;;4975163;28;20557;-63
2022/09/27 12:39:40;;;;;;;0.70;0.70;;;10.50;99.90;;;;;;4974573;28;20446;-63
2022/09/27 12:42:15;;;;;;;1.00;1.00;;;10.40;99.90;;;;;;4974953;28;20478;-63
2022/09/27 12:44:44;;;;;;;2.10;1.37;;;10.40;99.90;;;;;;4974741;28;20433;-63
2022/09/27 12:47:21;;;;;;;1.87;0.90;;;10.40;99.90;;;;;;4974720;28;20454;-63
2022/09/27 12:50:00;;;;;;;1.00;0.80;;;10.40;99.90;;;;;;4974813;28;20530;-63
2022/09/27 12:52:31;;;;;;;0.93;0.93;;;10.40;99.90;;;;;;4974876;28;20482;-63
2022/09/27 12:55:15;;;;;;;0.87;0.80;;;10.50;99.90;;;;;;4978506;28;20449;-63
2022/09/27 12:57:51;;;;;;;0.90;0.90;;;10.50;99.90;;;;;;4978818;28;20474;-64
2022/09/27 13:00:22;;;;;;;1.17;0.80;;;10.60;99.90;;;;;;4978432;28;20458;-64
2022/09/27 13:03:18;;;;;;;0.90;0.90;;;10.60;99.90;;;;;;4978423;28;20910;-63
2022/09/27 13:06:13;;;;;;;1.80;1.20;;;10.70;99.90;;;;;;4978766;28;20533;-63
2022/09/27 13:09:24;;;;;;;2.50;1.20;;;10.80;99.90;;;;;;4978613;28;20446;-63
2022/09/27 13:12:02;;;;;;;1.00;1.00;;;11.00;99.90;;;;;;4978520;28;20470;-63
2022/09/27 13:14:33;;;;;;;1.10;1.10;;;11.10;99.90;;;;;;4978611;28;20449;-64
2022/09/27 13:17:01;;;;;;;1.60;1.30;;;11.10;99.90;;;;;;4984079;28;20463;-63
2022/09/27 13:19:42;;;;;;;0.90;0.90;;;11.10;99.90;;;;;;4981725;28;20454;-63
2022/09/27 13:22:30;;;;;;;1.87;1.77;;;11.10;99.90;;;;;;4979574;28;20474;-64
2022/09/27 13:24:57;;;;;;;1.70;1.20;;;11.00;99.90;;;;;;4977913;28;20513;-64
2022/09/27 13:27:39;;;;;;;1.17;1.03;;;11.00;99.90;;;;;;4978103;28;20506;-62
2022/09/27 13:30:43;;;;;;;1.10;1.10;;;10.90;99.90;;;;;;4978218;28;20529;-64
2022/09/27 13:33:39;;;;;;;1.20;1.10;;;10.80;99.90;;;;;;4978122;28;20563;-63
2022/09/27 13:36:21;;;;;;;2.83;1.30;;;10.70;99.90;;;;;;4978126;28;20446;-63
2022/09/27 13:39:06;;;;;;;1.23;1.23;;;10.60;99.90;;;;;;4976183;28;20560;-63
2022/09/27 13:41:52;;;;;;;1.37;1.27;;;10.50;99.90;;;;;;4978042;28;20537;-63
2022/09/27 13:44:26;;;;;;;2.40;1.10;;;10.50;99.90;;;;;;4977955;28;20442;-63
2022/09/27 13:46:58;;;;;;;1.57;1.37;;;10.40;99.90;;;;;;4977996;28;20805;-62
2022/09/27 13:49:30;;;;;;;2.40;1.27;;;10.40;99.90;;;;;;4977908;28;20505;-62
2022/09/27 13:52:01;;;;;;;1.00;1.00;;;10.30;99.90;;;;;;4977814;28;20506;-62
2022/09/27 13:54:40;;;;;;;2.33;1.00;;;10.30;99.90;;;;;;4977896;28;20447;-64
2022/09/27 13:57:40;;;;;;;1.20;1.10;;;10.30;99.90;;;;;;4977558;28;20459;-64
2022/09/27 14:00:12;;;;;;;1.40;1.30;;;10.40;99.90;;;;;;4977435;28;20901;-63
2022/09/27 14:02:46;;;;;;;1.97;1.87;;;10.30;99.90;;;;;;4977803;28;20502;-63
2022/09/27 14:05:23;;;;;;;2.27;1.20;;;10.30;99.90;;;;;;4976490;28;20442;-62
2022/09/27 14:07:52;;;;;;;0.87;0.83;;;10.20;99.90;;;;;;4977183;28;20435;-62
2022/09/27 14:10:21;;;;;;;4.07;1.00;;;10.30;99.90;;;;;;4977452;28;20458;-63
2022/09/27 14:12:50;;;;;;;1.43;1.33;;;10.30;99.90;;;;;;4977464;28;20455;-62
2022/09/27 14:15:21;;;;;;;1.17;1.03;;;10.40;99.90;;;;;;4978282;28;20455;-64
2022/09/27 14:17:48;;;;;;;1.10;1.10;;;10.40;99.90;;;;;;4976970;28;20973;-63
2022/09/27 14:20:34;;;;;;;1.40;1.33;;;10.50;99.90;;;;;;4977463;28;20461;-63
2022/09/27 14:23:02;;;;;;;1.90;1.30;;;10.50;99.90;;;;;;4977217;28;20475;-62
2022/09/27 14:25:29;;;;;;;0.90;0.90;;;10.60;99.90;;;;;;4977133;28;20467;-62
2022/09/27 14:27:57;;;;;;;2.60;0.90;;;10.60;99.90;;;;;;4977523;28;20486;-62
2022/09/27 14:30:26;;;;;;;0.83;0.83;;;10.70;99.90;;;;;;4979136;28;20462;-63
2022/09/27 14:32:54;;;;;;;1.37;1.00;;;10.60;99.90;;;;;;4978247;28;20946;-64
2022/09/27 14:38:11;;;;;;;0.80;0.80;;;10.70;99.90;;;;;;4977226;28;20571;-63
2022/09/27 14:40:41;;;;;;;1.37;1.20;;;10.80;99.90;;;;;;4977307;28;20478;-63
2022/09/27 14:43:15;;;;;;;1.07;1.07;;;10.70;99.90;;;;;;4977354;28;20463;-63
2022/09/27 14:45:42;;;;;;;1.83;1.33;;;10.80;99.90;;;;;;4976440;28;20969;-63
2022/09/27 14:48:20;;;;;;;1.17;1.17;;;10.80;99.90;;;;;;4976233;28;20965;-63
2022/09/27 14:50:55;;;;;;;2.00;1.50;;;10.80;99.90;;;;;;4976578;28;20514;-63
2022/09/27 14:53:24;;;;;;;1.27;1.17;;;10.80;99.90;;;;;;4976754;28;20438;-64
2022/09/27 14:55:53;;;;;;;0.97;0.97;;;11.00;99.90;;;;;;4976646;28;20454;-64
2022/09/27 14:58:21;;;;;;;1.03;1.00;;;11.10;99.90;;;;;;4977537;28;20533;-63
2022/09/27 15:00:49;;;;;;;1.10;1.10;;;11.30;99.90;;;;;;4981840;28;20561;-62
2022/09/27 15:03:23;;;;;;;7.93;1.10;;;11.40;99.90;;;;;;4977647;28;20454;-64
2022/09/27 15:05:51;;;;;;;1.27;1.17;;;11.50;99.90;;;;;;4976462;28;20872;-64
2022/09/27 15:08:19;;;;;;;1.30;1.30;;;11.60;99.90;;;;;;4976473;28;20451;-63
2022/09/27 15:10:48;;;;;;;1.83;1.30;;;11.80;99.90;;;;;;4976281;28;20486;-63
2022/09/27 15:13:18;;;;;;;1.50;1.40;;;11.90;99.90;;;;;;4976331;28;20491;-64
2022/09/27 15:15:46;;;;;;;2.63;1.50;;;12.00;99.90;;;;;;4976121;28;20538;-64
2022/09/27 15:18:39;;;;;;;1.00;1.00;;;12.10;99.90;;;;;;4976043;28;20482;-63
2022/09/27 15:21:07;;;;;;;0.97;0.97;;;12.10;99.90;;;;;;4975663;28;21008;-64
2022/09/27 15:23:38;;;;;;;1.00;1.00;;;12.00;99.90;;;;;;4975593;28;20942;-63
2022/09/27 15:26:12;;;;;;;0.90;0.90;;;12.00;99.90;;;;;;4975995;28;20416;-64
2022/09/27 15:28:43;;;;;;;1.10;1.00;;;12.00;99.90;;;;;;4978776;28;20481;-63
2022/09/27 15:31:10;;;;;;;0.80;0.80;;;11.90;99.90;;;;;;4978853;28;20525;-63
2022/09/27 15:33:37;;;;;;;0.70;0.70;;;12.00;99.90;;;;;;4977276;28;20458;-63
2022/09/27 15:36:07;;;;;;;1.00;0.93;;;11.90;99.90;;;;;;4977535;28;20462;-64
2022/09/27 15:38:35;;;;;;;2.03;1.00;;;11.90;99.90;;;;;;4975994;28;20474;-64
2022/09/27 15:41:12;;;;;;;0.80;0.80;;;11.90;99.90;;;;;;4975804;28;20511;-64
2022/09/27 15:43:42;;;;;;;0.90;0.90;;;11.90;99.90;;;;;;4975398;28;20438;-64
2022/09/27 15:46:35;;;;;;;0.97;0.70;;;11.80;99.90;;;;;;4975799;28;20450;-63
2022/09/27 15:49:29;;;;;;;1.07;0.80;;;11.80;99.90;;;;;;4975370;28;20808;-65
2022/09/27 15:51:57;;;;;;;1.37;0.50;;;11.80;99.90;;;;;;4975733;28;20529;-64
2022/09/27 15:54:26;;;;;;;0.83;0.77;;;11.80;99.90;;;;;;4975623;28;20505;-63
2022/09/27 15:56:55;;;;;;;0.60;0.60;;;11.80;99.90;;;;;;4975370;28;20458;-64
2022/09/27 15:59:24;;;;;;;0.80;0.70;;;11.90;99.90;;;;;;4975633;28;20482;-62
2022/09/27 16:01:54;;;;;;;1.20;0.90;;;11.80;99.90;;;;;;4975000;28;20549;-62
2022/09/27 16:04:21;;;;;;;3.20;0.90;;;11.70;99.90;;;;;;4975404;28;20439;-63
2022/09/27 16:06:48;;;;;;;2.10;1.10;;;11.60;99.90;;;;;;4975332;28;21008;-63
2022/09/27 16:09:19;;;;;;;0.70;0.70;;;11.60;99.90;;;;;;4975257;28;20509;-63
2022/09/27 16:11:46;;;;;;;2.70;0.87;;;11.50;99.90;;;;;;4975254;28;20478;-63
2022/09/27 16:14:17;;;;;;;0.97;0.70;;;11.50;99.90;;;;;;4975224;28;20455;-63
2022/09/27 16:16:45;;;;;;;0.73;0.73;;;11.50;99.90;;;;;;4975234;28;20439;-63
2022/09/27 16:19:11;;;;;;;0.90;0.70;;;11.40;99.90;;;;;;4974982;28;20482;-63
2022/09/27 16:21:39;;;;;;;1.30;0.97;;;11.40;99.90;;;;;;4975094;28;20478;-62
2022/09/27 16:24:06;;;;;;;0.90;0.80;;;11.40;99.90;;;;;;4975366;28;20458;-63
2022/09/27 16:26:33;;;;;;;2.77;1.17;;;11.40;99.90;;;;;;4974734;28;20461;-63
2022/09/27 16:29:00;;;;;;;1.13;1.00;;;11.40;99.90;;;;;;4974608;28;20458;-63
2022/09/27 16:31:28;;;;;;;0.87;0.70;;;11.40;99.90;;;;;;4974913;28;20479;-62
2022/09/27 16:33:55;;;;;;;2.00;1.20;;;11.40;99.90;;;;;;4974707;28;20513;-63
2022/09/27 16:36:21;;;;;;;1.33;1.00;;;11.30;99.90;;;;;;4974985;28;20454;-62
2022/09/27 16:38:50;;;;;;;1.73;0.93;;;11.20;99.90;;;;;;4974967;28;20483;-62
2022/09/27 16:41:16;;;;;;;1.00;0.93;;;11.10;99.90;;;;;;4974899;28;20561;-62
2022/09/27 16:43:44;;;;;;;2.23;0.90;;;11.00;99.90;;;;;;4974907;28;20505;-62
2022/09/27 16:46:14;;;;;;;1.00;1.00;;;11.00;99.90;;;;;;4974937;28;20546;-63
2022/09/27 16:48:42;;;;;;;1.23;0.83;;;10.90;99.90;;;;;;4975296;28;20509;-63
2022/09/27 16:53:57;;;;;;;1.93;1.40;;;10.80;99.90;;;;;;4975092;28;20462;-62
2022/09/27 16:56:25;;;;;;;1.97;1.33;;;10.80;99.90;;;;;;4974941;28;20454;-62
2022/09/27 16:58:52;;;;;;;1.77;1.10;;;10.80;99.90;;;;;;4974769;28;20479;-63
2022/09/27 17:01:20;;;;;;;1.57;0.93;;;10.80;99.90;;;;;;4974613;28;20493;-63
2022/09/27 17:03:50;;;;;;;1.80;0.93;;;10.80;99.90;;;;;;4974600;28;21027;-63
2022/09/27 17:06:18;;;;;;;2.13;1.53;;;10.80;99.90;;;;;;4975154;28;20906;-62
2022/09/27 17:08:45;;;;;;;0.97;0.80;;;10.80;99.90;;;;;;4975609;28;20450;-61
2022/09/27 17:11:14;;;;;;;2.20;1.03;;;10.80;99.90;;;;;;4974726;28;20478;-63
2022/09/27 17:13:41;;;;;;;2.83;1.10;;;10.80;99.90;;;;;;4974873;28;20490;-63
2022/09/27 17:16:08;;;;;;;1.03;1.00;;;10.80;99.90;;;;;;4975042;28;20514;-63
2022/09/27 17:18:34;;;;;;;1.47;1.00;;;10.80;99.90;;;;;;4974821;28;20885;-64
2022/09/27 17:21:04;;;;;;;1.50;1.20;;;10.80;99.90;;;;;;4974869;28;20479;-62
2022/09/27 17:23:31;;;;;;;3.13;1.10;;;10.70;99.90;;;;;;4975499;28;20937;-63